createdAt,value
2017-10-26T00:00:44.266Z,11.68
2017-10-26T00:03:12.576Z,11.73
2017-10-26T00:05:40.886Z,11.67
2017-10-26T00:08:09.193Z,11.63
2017-10-26T00:10:37.505Z,11.59
2017-10-26T00:13:05.804Z,11.56
2017-10-26T00:15:34.109Z,11.52
2017-10-26T00:18:02.425Z,11.50
2017-10-26T00:20:31.511Z,11.49
2017-10-26T00:23:00.572Z,11.51
2017-10-26T00:25:28.880Z,11.49
2017-10-26T00:27:57.194Z,11.43
2017-10-26T00:30:25.505Z,11.43
2017-10-26T00:32:53.808Z,11.38
2017-10-26T00:35:22.121Z,11.35
2017-10-26T00:37:50.437Z,11.36
2017-10-26T00:40:18.755Z,11.40
2017-10-26T00:42:47.826Z,11.38
2017-10-26T00:45:16.194Z,11.41
2017-10-26T00:47:44.495Z,11.46
2017-10-26T00:50:13.574Z,11.54
2017-10-26T00:52:41.882Z,11.59
2017-10-26T00:55:11.004Z,11.64
2017-10-26T00:57:39.337Z,11.69
2017-10-26T01:00:07.671Z,11.71
2017-10-26T01:02:35.974Z,11.73
2017-10-26T01:05:04.281Z,11.71
2017-10-26T01:07:33.356Z,11.74
2017-10-26T01:10:01.679Z,11.72
2017-10-26T01:12:30.014Z,11.62
2017-10-26T01:14:58.380Z,11.60
2017-10-26T01:17:26.677Z,11.56
2017-10-26T01:19:55.006Z,11.51
2017-10-26T01:22:23.342Z,11.50
2017-10-26T01:24:52.413Z,11.47
2017-10-26T01:27:20.715Z,11.44
2017-10-26T01:29:49.826Z,11.46
2017-10-26T01:32:18.129Z,11.42
2017-10-26T01:34:46.462Z,11.37
2017-10-26T01:37:15.532Z,11.39
2017-10-26T01:39:43.906Z,11.37
2017-10-26T01:42:12.983Z,11.37
2017-10-26T01:44:41.284Z,11.40
2017-10-26T01:47:09.586Z,11.47
2017-10-26T01:49:38.668Z,11.49
2017-10-26T01:52:06.991Z,11.54
2017-10-26T01:54:35.297Z,11.56
2017-10-26T01:57:03.604Z,11.59
2017-10-26T01:59:32.710Z,11.59
2017-10-26T02:02:01.795Z,11.61
2017-10-26T02:04:31.016Z,11.57
2017-10-26T02:06:59.330Z,11.60
2017-10-26T02:09:27.653Z,11.61
2017-10-26T02:11:56.834Z,11.64
2017-10-26T02:14:25.179Z,11.70
2017-10-26T02:16:53.558Z,11.80
2017-10-26T02:19:21.892Z,11.85
2017-10-26T02:21:51.002Z,11.94
2017-10-26T02:24:19.407Z,11.98
2017-10-26T02:26:47.728Z,12.05
2017-10-26T02:29:33.867Z,12.02
2017-10-26T02:32:02.334Z,12.04
2017-10-26T02:34:31.496Z,12.03
2017-10-26T02:36:59.832Z,12.04
2017-10-26T02:39:28.174Z,12.06
2017-10-26T02:41:56.538Z,12.02
2017-10-26T02:44:24.887Z,12.04
2017-10-26T02:46:54.013Z,12.09
2017-10-26T02:49:23.149Z,12.13
2017-10-26T02:51:51.505Z,12.17
2017-10-26T02:54:20.632Z,12.20
2017-10-26T02:56:49.015Z,12.20
2017-10-26T02:59:17.361Z,12.22
2017-10-26T03:01:46.459Z,12.24
2017-10-26T03:04:14.793Z,12.25
2017-10-26T03:06:43.170Z,12.31
2017-10-26T03:09:11.556Z,12.43
2017-10-26T03:11:39.909Z,12.49
2017-10-26T03:14:08.241Z,12.55
2017-10-26T03:16:36.590Z,12.53
2017-10-26T03:19:04.943Z,12.49
2017-10-26T03:21:33.317Z,12.45
2017-10-26T03:24:01.618Z,12.41
2017-10-26T03:26:29.957Z,12.37
2017-10-26T03:28:58.300Z,12.31
2017-10-26T03:31:27.402Z,12.36
2017-10-26T03:33:55.731Z,12.40
2017-10-26T03:36:24.059Z,12.36
2017-10-26T03:38:53.150Z,12.45
2017-10-26T03:41:22.229Z,12.48
2017-10-26T03:43:50.563Z,12.48
2017-10-26T03:46:18.880Z,12.50
2017-10-26T03:48:47.211Z,12.48
2017-10-26T03:51:15.561Z,12.46
2017-10-26T03:53:44.651Z,12.44
2017-10-26T03:56:13.748Z,12.42
2017-10-26T03:58:42.064Z,12.43
2017-10-26T04:01:10.399Z,12.44
2017-10-26T04:03:39.507Z,12.48
2017-10-26T04:06:07.882Z,12.49
2017-10-26T04:08:36.974Z,12.51
2017-10-26T04:11:06.063Z,12.52
2017-10-26T04:13:34.374Z,12.51
2017-10-26T04:16:02.710Z,12.49
2017-10-26T04:18:31.038Z,12.46
2017-10-26T04:20:59.452Z,12.48
2017-10-26T04:23:27.839Z,12.51
2017-10-26T04:25:56.212Z,12.50
2017-10-26T04:28:24.585Z,12.50
2017-10-26T04:30:52.962Z,12.49
2017-10-26T04:33:21.332Z,12.42
2017-10-26T04:35:49.719Z,12.44
2017-10-26T04:38:18.095Z,12.39
2017-10-26T04:40:46.407Z,12.35
2017-10-26T04:43:15.498Z,12.35
2017-10-26T04:45:43.890Z,12.35
2017-10-26T04:48:12.982Z,12.37
2017-10-26T04:50:42.065Z,12.31
2017-10-26T04:53:10.463Z,12.39
2017-10-26T04:55:38.774Z,12.35
2017-10-26T04:58:07.103Z,12.36
2017-10-26T05:00:36.253Z,12.31
2017-10-26T05:03:04.622Z,12.33
2017-10-26T05:05:32.935Z,12.30
2017-10-26T05:08:01.278Z,12.30
2017-10-26T05:10:29.593Z,12.31
2017-10-26T05:12:57.931Z,12.33
2017-10-26T05:15:26.234Z,12.36
2017-10-26T05:17:54.557Z,12.37
2017-10-26T05:20:23.650Z,12.36
2017-10-26T05:22:52.741Z,12.35
2017-10-26T05:25:21.049Z,12.30
2017-10-26T05:27:49.382Z,12.17
2017-10-26T05:30:17.698Z,12.16
2017-10-26T05:32:46.030Z,12.18
2017-10-26T05:35:14.339Z,12.18
2017-10-26T05:37:43.426Z,12.17
2017-10-26T05:40:11.753Z,12.20
2017-10-26T05:42:40.077Z,12.16
2017-10-26T05:45:09.168Z,12.19
2017-10-26T05:47:38.253Z,12.17
2017-10-26T05:50:06.578Z,12.13
2017-10-26T05:52:34.902Z,12.11
2017-10-26T05:55:03.211Z,12.07
2017-10-26T05:57:32.332Z,12.04
2017-10-26T06:00:00.661Z,12.02
2017-10-26T06:02:28.976Z,12.01
2017-10-26T06:04:57.283Z,12.02
2017-10-26T06:07:25.614Z,12.08
2017-10-26T06:09:54.715Z,12.13
2017-10-26T06:12:23.035Z,12.15
2017-10-26T06:14:51.363Z,12.12
2017-10-26T06:17:20.459Z,12.15
2017-10-26T06:19:49.554Z,12.12
2017-10-26T06:22:18.654Z,12.13
2017-10-26T06:24:47.752Z,12.17
2017-10-26T06:27:16.071Z,12.19
2017-10-26T06:29:44.399Z,12.14
2017-10-26T06:32:13.477Z,12.15
2017-10-26T06:34:41.791Z,12.23
2017-10-26T06:37:10.103Z,12.28
2017-10-26T06:39:38.434Z,12.35
2017-10-26T06:42:07.520Z,12.41
2017-10-26T06:44:36.605Z,12.44
2017-10-26T06:47:04.920Z,12.41
2017-10-26T06:49:33.243Z,12.54
2017-10-26T06:52:01.567Z,12.52
2017-10-26T06:54:30.139Z,12.43
2017-10-26T06:56:59.225Z,12.45
2017-10-26T06:59:28.320Z,12.48
2017-10-26T07:01:57.421Z,12.62
2017-10-26T07:04:26.515Z,12.66
2017-10-26T07:06:55.603Z,12.61
2017-10-26T07:09:24.698Z,12.72
2017-10-26T07:11:53.799Z,12.82
2017-10-26T07:14:22.898Z,12.85
2017-10-26T07:16:51.985Z,12.85
2017-10-26T07:19:21.117Z,12.88
2017-10-26T07:21:49.426Z,12.94
2017-10-26T07:24:17.746Z,13.06
2017-10-26T07:26:46.830Z,13.26
2017-10-26T07:29:15.924Z,13.40
2017-10-26T07:31:45.023Z,13.31
2017-10-26T07:34:14.117Z,13.41
2017-10-26T07:36:43.197Z,13.41
2017-10-26T07:39:11.518Z,13.31
2017-10-26T07:41:39.852Z,13.39
2017-10-26T07:44:08.184Z,13.47
2017-10-26T07:46:36.506Z,13.56
2017-10-26T07:49:04.847Z,13.55
2017-10-26T07:51:33.177Z,13.57
2017-10-26T07:54:02.254Z,13.70
2017-10-26T07:56:30.569Z,13.61
2017-10-26T07:58:58.880Z,13.70
2017-10-26T08:01:27.206Z,13.89
2017-10-26T08:03:56.293Z,13.98
2017-10-26T08:06:25.393Z,14.29
2017-10-26T08:08:54.470Z,14.48
2017-10-26T08:11:22.785Z,14.25
2017-10-26T08:13:51.111Z,14.30
2017-10-26T08:16:19.438Z,14.33
2017-10-26T08:18:48.515Z,14.37
2017-10-26T08:21:16.839Z,14.32
2017-10-26T08:23:45.163Z,14.46
2017-10-26T08:26:13.495Z,14.45
2017-10-26T08:28:41.818Z,14.66
2017-10-26T08:31:10.143Z,14.75
2017-10-26T08:33:38.462Z,14.84
2017-10-26T08:36:06.787Z,14.83
2017-10-26T08:38:35.102Z,15.13
2017-10-26T08:41:04.192Z,15.25
2017-10-26T08:43:32.507Z,15.96
2017-10-26T08:46:01.591Z,15.98
2017-10-26T08:48:29.950Z,16.22
2017-10-26T08:50:58.266Z,16.27
2017-10-26T08:53:27.341Z,16.12
2017-10-26T08:55:55.658Z,17.87
2017-10-26T08:58:23.968Z,19.72
2017-10-26T09:00:52.298Z,19.40
2017-10-26T09:03:21.377Z,18.10
2017-10-26T09:05:50.471Z,17.22
2017-10-26T09:08:18.790Z,16.54
2017-10-26T09:10:47.106Z,16.47
2017-10-26T09:13:15.417Z,16.38
2017-10-26T09:15:44.510Z,16.02
2017-10-26T09:18:13.587Z,16.34
2017-10-26T09:20:42.014Z,16.28
2017-10-26T09:23:10.340Z,16.00
2017-10-26T09:25:38.670Z,16.07
2017-10-26T09:28:06.983Z,15.93
2017-10-26T09:30:36.074Z,15.83
2017-10-26T09:33:09.927Z,15.96
2017-10-26T09:35:39.010Z,16.04
2017-10-26T09:38:08.087Z,16.04
2017-10-26T09:40:36.468Z,16.26
2017-10-26T09:43:04.794Z,16.24
2017-10-26T09:45:33.119Z,16.42
2017-10-26T09:48:01.426Z,16.29
2017-10-26T09:50:30.518Z,16.14
2017-10-26T09:52:59.608Z,16.31
2017-10-26T09:55:28.701Z,16.38
2017-10-26T09:57:57.010Z,16.37
2017-10-26T10:00:25.322Z,16.46
2017-10-26T10:02:53.641Z,16.44
2017-10-26T10:05:22.715Z,16.82
2017-10-26T10:07:51.814Z,16.85
2017-10-26T10:10:20.124Z,16.71
2017-10-26T10:12:48.447Z,16.86
2017-10-26T10:15:16.762Z,17.25
2017-10-26T10:17:45.879Z,17.37
2017-10-26T10:20:14.191Z,17.01
2017-10-26T10:22:42.518Z,17.34
2017-10-26T10:25:11.594Z,17.40
2017-10-26T10:27:39.915Z,17.17
2017-10-26T10:30:08.235Z,17.60
2017-10-26T10:32:36.561Z,17.52
2017-10-26T10:35:04.874Z,17.37
2017-10-26T10:37:33.200Z,17.65
2017-10-26T10:40:02.282Z,17.54
2017-10-26T10:42:30.606Z,17.76
2017-10-26T10:44:58.911Z,17.53
2017-10-26T10:47:27.230Z,17.61
2017-10-26T10:49:56.297Z,17.87
2017-10-26T10:52:24.628Z,18.17
2017-10-26T10:54:52.942Z,17.45
2017-10-26T10:57:21.259Z,17.61
2017-10-26T10:59:55.784Z,17.57
2017-10-26T11:02:24.098Z,17.63
2017-10-26T11:04:52.405Z,17.63
2017-10-26T11:07:20.709Z,17.69
2017-10-26T11:09:49.795Z,17.92
2017-10-26T11:12:18.887Z,18.19
2017-10-26T11:14:48.075Z,18.04
2017-10-26T11:17:16.403Z,17.97
2017-10-26T11:19:44.731Z,18.18
2017-10-26T11:22:13.038Z,18.28
2017-10-26T11:24:42.114Z,18.00
2017-10-26T11:27:11.190Z,17.36
2017-10-26T11:29:39.510Z,17.30
2017-10-26T11:32:07.817Z,17.59
2017-10-26T11:34:36.135Z,17.53
2017-10-26T11:37:04.437Z,17.47
2017-10-26T11:39:32.762Z,17.43
2017-10-26T11:42:01.071Z,17.23
2017-10-26T11:44:30.161Z,17.20
2017-10-26T11:46:58.475Z,17.25
2017-10-26T11:49:26.795Z,17.31
2017-10-26T11:51:55.107Z,17.59
2017-10-26T11:54:23.446Z,17.65
2017-10-26T11:56:51.754Z,17.47
2017-10-26T11:59:20.890Z,17.37
2017-10-26T12:01:49.237Z,17.27
2017-10-26T12:04:18.371Z,17.16
2017-10-26T12:06:46.686Z,17.64
2017-10-26T12:09:15.016Z,17.72
2017-10-26T12:11:43.338Z,17.66
2017-10-26T12:14:11.849Z,17.29
2017-10-26T12:16:40.175Z,17.53
2017-10-26T12:19:08.490Z,17.52
2017-10-26T12:21:37.617Z,17.31
2017-10-26T12:24:05.936Z,17.42
2017-10-26T12:26:34.290Z,17.54
2017-10-26T12:29:02.631Z,17.42
2017-10-26T12:31:31.726Z,17.26
2017-10-26T12:34:00.831Z,17.32
2017-10-26T12:36:29.213Z,17.38
2017-10-26T12:38:57.540Z,17.56
2017-10-26T12:41:25.857Z,17.49
2017-10-26T12:43:54.966Z,17.46
2017-10-26T12:46:23.292Z,17.50
2017-10-26T12:48:51.635Z,17.38
2017-10-26T12:51:19.947Z,17.19
2017-10-26T12:53:48.285Z,17.30
2017-10-26T12:56:16.621Z,17.06
2017-10-26T12:58:44.972Z,17.19
2017-10-26T13:01:13.279Z,17.11
2017-10-26T13:03:41.619Z,17.32
2017-10-26T13:06:09.962Z,17.15
2017-10-26T13:08:38.292Z,17.27
2017-10-26T13:11:06.611Z,17.33
2017-10-26T13:13:35.690Z,17.07
2017-10-26T13:16:04.017Z,17.28
2017-10-26T13:18:32.384Z,17.27
2017-10-26T13:21:00.704Z,17.47
2017-10-26T13:23:29.179Z,17.46
2017-10-26T13:25:57.896Z,17.27
2017-10-26T13:28:26.213Z,17.33
2017-10-26T13:30:54.530Z,17.11
2017-10-26T13:33:22.854Z,16.98
2017-10-26T13:35:51.173Z,16.94
2017-10-26T13:38:19.496Z,17.12
2017-10-26T13:40:47.813Z,17.27
2017-10-26T13:43:16.123Z,17.27
2017-10-26T13:45:44.446Z,17.02
2017-10-26T13:48:12.757Z,17.12
2017-10-26T13:50:41.074Z,17.07
2017-10-26T13:53:10.175Z,17.07
2017-10-26T13:55:39.259Z,16.96
2017-10-26T13:58:08.342Z,16.89
2017-10-26T14:00:36.664Z,16.97
2017-10-26T14:03:04.978Z,16.81
2017-10-26T14:05:33.314Z,16.82
2017-10-26T14:08:01.631Z,16.87
2017-10-26T14:10:29.947Z,16.59
2017-10-26T14:12:59.030Z,16.60
2017-10-26T14:15:27.354Z,16.62
2017-10-26T14:17:55.680Z,16.60
2017-10-26T14:20:24.006Z,16.57
2017-10-26T14:22:52.315Z,16.51
2017-10-26T14:25:20.626Z,16.61
2017-10-26T14:27:49.749Z,16.55
2017-10-26T14:30:18.065Z,16.51
2017-10-26T14:32:47.139Z,16.54
2017-10-26T14:35:15.453Z,16.47
2017-10-26T14:37:44.095Z,16.43
2017-10-26T14:40:12.415Z,16.31
2017-10-26T14:42:40.731Z,16.32
2017-10-26T14:45:09.046Z,16.36
2017-10-26T14:47:37.352Z,16.41
2017-10-26T14:50:05.674Z,16.20
2017-10-26T14:52:34.650Z,16.16
2017-10-26T14:55:03.761Z,16.06
2017-10-26T14:57:32.079Z,16.02
2017-10-26T15:00:00.388Z,16.06
2017-10-26T15:02:29.467Z,16.10
2017-10-26T15:04:57.801Z,15.91
2017-10-26T15:07:26.114Z,15.91
2017-10-26T15:09:54.430Z,15.86
2017-10-26T15:12:23.506Z,15.85
2017-10-26T15:14:51.826Z,15.83
2017-10-26T15:17:20.132Z,15.80
2017-10-26T15:19:48.446Z,15.80
2017-10-26T15:22:17.530Z,15.67
2017-10-26T15:24:45.842Z,15.60
2017-10-26T15:27:14.195Z,15.54
2017-10-26T15:29:43.263Z,15.57
2017-10-26T15:32:11.573Z,15.45
2017-10-26T15:34:40.651Z,15.42
2017-10-26T15:37:08.981Z,15.35
2017-10-26T15:39:37.282Z,15.35
2017-10-26T15:42:06.358Z,15.28
2017-10-26T15:44:34.694Z,15.19
2017-10-26T15:47:03.784Z,15.10
2017-10-26T15:49:32.878Z,15.03
2017-10-26T15:52:01.962Z,15.06
2017-10-26T15:54:30.281Z,15.03
2017-10-26T15:56:58.607Z,14.96
2017-10-26T15:59:26.922Z,14.95
2017-10-26T16:01:55.244Z,14.87
2017-10-26T16:04:23.565Z,14.85
2017-10-26T16:06:52.657Z,14.83
2017-10-26T16:09:21.783Z,14.79
2017-10-26T16:11:50.122Z,14.76
2017-10-26T16:14:18.459Z,14.72
2017-10-26T16:16:46.814Z,14.66
2017-10-26T16:19:15.138Z,14.61
2017-10-26T16:21:43.492Z,14.61
2017-10-26T16:24:11.811Z,14.59
2017-10-26T16:26:40.131Z,14.57
2017-10-26T16:29:08.496Z,14.50
2017-10-26T16:31:36.882Z,14.50
2017-10-26T16:34:05.203Z,14.49
2017-10-26T16:36:33.543Z,14.48
2017-10-26T16:39:01.869Z,14.50
2017-10-26T16:41:30.210Z,14.45
2017-10-26T16:43:58.551Z,14.49
2017-10-26T16:46:27.669Z,14.43
2017-10-26T16:48:55.996Z,14.41
2017-10-26T16:51:24.339Z,14.37
2017-10-26T16:53:52.647Z,14.40
2017-10-26T16:56:20.986Z,14.34
2017-10-26T16:58:49.341Z,14.33
2017-10-26T17:01:18.452Z,14.32
2017-10-26T17:03:46.788Z,14.26
2017-10-26T17:06:15.154Z,14.23
2017-10-26T17:08:43.488Z,14.25
2017-10-26T17:11:11.883Z,14.29
2017-10-26T17:13:40.223Z,14.30
2017-10-26T17:16:09.337Z,14.29
2017-10-26T17:18:37.714Z,14.27
2017-10-26T17:21:06.053Z,14.24
2017-10-26T17:23:34.394Z,14.29
2017-10-26T17:26:02.730Z,14.23
2017-10-26T17:28:31.820Z,14.16
2017-10-26T17:31:00.932Z,14.21
2017-10-26T17:33:29.320Z,14.22
2017-10-26T17:35:57.698Z,14.20
2017-10-26T17:38:26.036Z,14.20
2017-10-26T17:40:54.409Z,14.17
2017-10-26T17:43:22.747Z,14.15
2017-10-26T17:45:51.097Z,14.15
2017-10-26T17:48:19.432Z,14.14
2017-10-26T17:50:47.757Z,14.15
2017-10-26T17:53:16.118Z,14.14
2017-10-26T17:55:45.199Z,14.11
2017-10-26T17:58:13.526Z,14.03
2017-10-26T18:00:41.863Z,14.08
2017-10-26T18:03:10.210Z,14.04
2017-10-26T18:05:38.559Z,14.06
2017-10-26T18:08:06.882Z,14.02
2017-10-26T18:10:35.231Z,13.98
2017-10-26T18:13:03.551Z,14.09
2017-10-26T18:15:31.891Z,14.00
2017-10-26T18:18:00.231Z,13.97
2017-10-26T18:20:28.556Z,13.99
2017-10-26T18:22:56.883Z,14.02
2017-10-26T18:25:25.208Z,13.98
2017-10-26T18:27:53.534Z,14.00
2017-10-26T18:30:21.863Z,14.09
2017-10-26T18:32:50.238Z,14.12
2017-10-26T18:35:18.562Z,14.14
2017-10-26T18:37:46.880Z,14.14
2017-10-26T18:40:15.219Z,14.13
2017-10-26T18:42:44.319Z,14.18
2017-10-26T18:45:12.639Z,14.19
2017-10-26T18:47:41.753Z,14.13
2017-10-26T18:50:10.079Z,14.18
2017-10-26T18:52:38.400Z,14.09
2017-10-26T18:55:06.719Z,14.13
2017-10-26T18:57:35.821Z,14.12
2017-10-26T19:00:04.151Z,14.08
2017-10-26T19:02:32.476Z,14.13
2017-10-26T19:05:01.628Z,14.07
2017-10-26T19:07:29.947Z,14.07
2017-10-26T19:09:58.286Z,14.07
2017-10-26T19:12:26.631Z,14.12
2017-10-26T19:14:54.949Z,14.12
2017-10-26T19:17:23.302Z,14.07
2017-10-26T19:19:51.615Z,14.10
2017-10-26T19:22:20.710Z,14.12
2017-10-26T19:24:49.028Z,14.11
2017-10-26T19:27:17.375Z,14.12
2017-10-26T19:29:46.464Z,14.06
2017-10-26T19:32:15.590Z,14.07
2017-10-26T19:34:43.919Z,14.08
2017-10-26T19:37:12.239Z,13.95
2017-10-26T19:39:40.563Z,13.91
2017-10-26T19:42:08.887Z,13.95
2017-10-26T19:44:37.983Z,13.89
2017-10-26T19:47:06.310Z,13.88
2017-10-26T19:49:34.650Z,13.86
2017-10-26T19:52:02.967Z,13.83
2017-10-26T19:54:31.292Z,13.87
2017-10-26T19:57:00.381Z,13.83
2017-10-26T19:59:29.489Z,13.84
2017-10-26T20:01:58.573Z,13.82
2017-10-26T20:04:27.667Z,13.75
2017-10-26T20:06:55.999Z,13.72
2017-10-26T20:09:24.349Z,13.73
2017-10-26T20:11:52.677Z,13.68
2017-10-26T20:14:21.007Z,13.71
2017-10-26T20:16:49.334Z,13.72
2017-10-26T20:19:17.654Z,13.70
2017-10-26T20:21:45.970Z,13.72
2017-10-26T20:24:14.315Z,13.68
2017-10-26T20:26:42.643Z,13.62
2017-10-26T20:29:10.966Z,13.57
2017-10-26T20:31:39.296Z,13.55
2017-10-26T20:34:07.618Z,13.58
2017-10-26T20:36:35.949Z,13.52
2017-10-26T20:39:04.269Z,13.51
2017-10-26T20:41:33.390Z,13.48
2017-10-26T20:44:01.722Z,13.50
2017-10-26T20:46:30.031Z,13.51
2017-10-26T20:48:58.369Z,13.59
2017-10-26T20:54:39.848Z,13.52
2017-10-26T20:57:13.509Z,13.49
2017-10-26T20:59:47.564Z,13.48
2017-10-26T21:02:21.572Z,13.47
2017-10-26T21:04:56.078Z,13.46
2017-10-26T21:07:29.890Z,13.51
2017-10-26T21:09:58.242Z,13.48
2017-10-26T21:12:32.064Z,13.52
2017-10-26T21:15:00.419Z,13.49
2017-10-26T21:17:28.755Z,13.50
2017-10-26T21:19:57.104Z,13.59
2017-10-26T21:22:25.442Z,13.54
2017-10-26T21:24:54.615Z,13.57
2017-10-26T21:27:22.926Z,13.58
2017-10-26T21:29:52.060Z,13.62
2017-10-26T21:32:20.382Z,13.60
2017-10-26T21:34:48.735Z,13.53
2017-10-26T21:37:17.078Z,13.57
2017-10-26T21:39:45.430Z,13.53
2017-10-26T21:42:14.531Z,13.53
2017-10-26T21:44:42.902Z,13.48
2017-10-26T21:47:11.999Z,13.48
2017-10-26T21:49:41.138Z,13.41
2017-10-26T21:52:09.521Z,13.40
2017-10-26T21:54:37.886Z,13.37
2017-10-26T21:57:06.226Z,13.36
2017-10-26T21:59:35.366Z,13.34
2017-10-26T22:02:03.698Z,13.29
2017-10-26T22:04:32.843Z,13.34
2017-10-26T22:07:01.157Z,13.32
2017-10-26T22:09:29.523Z,13.27
2017-10-26T22:11:57.873Z,13.29
2017-10-26T22:14:26.236Z,13.22
2017-10-26T22:16:54.550Z,13.30
2017-10-26T22:19:22.900Z,13.26
2017-10-26T22:21:51.254Z,13.25
2017-10-26T22:24:19.620Z,13.25
2017-10-26T22:26:48.743Z,13.25
2017-10-26T22:29:17.104Z,13.29
2017-10-26T22:31:45.435Z,13.27
2017-10-26T22:34:13.757Z,13.26
2017-10-26T22:36:42.900Z,13.25
2017-10-26T22:39:11.226Z,13.24
2017-10-26T22:41:40.365Z,13.21
2017-10-26T22:44:08.700Z,13.26
2017-10-26T22:46:37.854Z,13.22
2017-10-26T22:49:06.169Z,13.21
2017-10-26T22:51:35.297Z,13.18
2017-10-26T22:54:03.611Z,13.22
2017-10-26T22:56:31.938Z,13.05
2017-10-26T22:59:00.259Z,13.07
2017-10-26T23:01:28.592Z,13.02
2017-10-26T23:03:56.910Z,13.05
2017-10-26T23:06:25.262Z,12.98
2017-10-26T23:08:53.594Z,12.96
2017-10-26T23:11:21.947Z,12.91
2017-10-26T23:13:50.294Z,12.94
2017-10-26T23:16:18.630Z,12.94
2017-10-26T23:18:46.985Z,12.94
2017-10-26T23:21:15.303Z,12.94
2017-10-26T23:23:44.429Z,12.97
2017-10-26T23:26:12.755Z,12.92
2017-10-26T23:28:41.074Z,12.88
2017-10-26T23:31:09.402Z,12.87
2017-10-26T23:33:37.721Z,12.88
2017-10-26T23:36:06.054Z,12.83
2017-10-26T23:38:34.373Z,12.80
2017-10-26T23:41:03.473Z,12.78
2017-10-26T23:43:31.791Z,12.80
2017-10-26T23:46:00.101Z,12.77
2017-10-26T23:48:28.408Z,12.68
2017-10-26T23:50:56.746Z,12.71
2017-10-26T23:53:25.065Z,12.74
2017-10-26T23:55:53.376Z,12.77
2017-10-26T23:58:21.723Z,12.69
